sensor_id;sensor_type;location;lat;lon;timestamp;P1;durP1;ratioP1;P2;durP2;ratioP2
3427;SDS011;1727;42.624;23.406;2023-02-25T00:02:00;37.43;;;23.00;;
3427;SDS011;1727;42.624;23.406;2023-02-25T00:04:28;40.27;;;23.27;;
3427;SDS011;1727;42.624;23.406;2023-02-25T00:06:55;42.70;;;22.80;;
3427;SDS011;1727;42.624;23.406;2023-02-25T00:09:22;34.93;;;21.97;;
3427;SDS011;1727;42.624;23.406;2023-02-25T00:11:49;50.03;;;30.40;;
3427;SDS011;1727;42.624;23.406;2023-02-25T00:14:15;37.20;;;22.10;;
3427;SDS011;1727;42.624;23.406;2023-02-25T00:16:42;37.70;;;21.30;;
3427;SDS011;1727;42.624;23.406;2023-02-25T00:19:09;48.67;;;27.17;;
3427;SDS011;1727;42.624;23.406;2023-02-25T00:21:37;40.53;;;21.37;;
3427;SDS011;1727;42.624;23.406;2023-02-25T00:24:04;34.67;;;21.17;;
3427;SDS011;1727;42.624;23.406;2023-02-25T00:26:31;52.67;;;21.47;;
3427;SDS011;1727;42.624;23.406;2023-02-25T00:28:58;42.63;;;24.23;;
3427;SDS011;1727;42.624;23.406;2023-02-25T00:31:25;34.97;;;20.43;;
3427;SDS011;1727;42.624;23.406;2023-02-25T00:33:51;34.73;;;19.07;;
3427;SDS011;1727;42.624;23.406;2023-02-25T00:36:19;34.23;;;20.97;;
3427;SDS011;1727;42.624;23.406;2023-02-25T00:38:49;31.73;;;18.60;;
3427;SDS011;1727;42.624;23.406;2023-02-25T00:41:17;32.87;;;18.97;;
3427;SDS011;1727;42.624;23.406;2023-02-25T00:43:47;35.83;;;18.40;;
3427;SDS011;1727;42.624;23.406;2023-02-25T00:46:15;36.57;;;19.97;;
3427;SDS011;1727;42.624;23.406;2023-02-25T00:48:42;33.67;;;19.13;;
3427;SDS011;1727;42.624;23.406;2023-02-25T00:51:10;36.70;;;19.13;;
3427;SDS011;1727;42.624;23.406;2023-02-25T00:53:38;29.60;;;17.93;;
3427;SDS011;1727;42.624;23.406;2023-02-25T00:56:08;35.37;;;18.83;;
3427;SDS011;1727;42.624;23.406;2023-02-25T00:58:39;44.57;;;18.83;;
3427;SDS011;1727;42.624;23.406;2023-02-25T01:01:14;33.27;;;20.10;;
3427;SDS011;1727;42.624;23.406;2023-02-25T01:03:43;28.77;;;19.17;;
3427;SDS011;1727;42.624;23.406;2023-02-25T01:06:10;30.20;;;16.87;;
3427;SDS011;1727;42.624;23.406;2023-02-25T01:08:37;31.27;;;18.60;;
3427;SDS011;1727;42.624;23.406;2023-02-25T01:11:10;51.53;;;21.90;;
3427;SDS011;1727;42.624;23.406;2023-02-25T01:13:39;52.87;;;33.43;;
3427;SDS011;1727;42.624;23.406;2023-02-25T01:16:12;48.37;;;24.23;;
3427;SDS011;1727;42.624;23.406;2023-02-25T01:18:41;39.10;;;20.50;;
3427;SDS011;1727;42.624;23.406;2023-02-25T01:21:13;69.37;;;38.30;;
3427;SDS011;1727;42.624;23.406;2023-02-25T01:23:41;54.37;;;32.67;;
3427;SDS011;1727;42.624;23.406;2023-02-25T01:26:10;41.73;;;24.40;;
3427;SDS011;1727;42.624;23.406;2023-02-25T01:28:37;36.10;;;22.50;;
3427;SDS011;1727;42.624;23.406;2023-02-25T01:31:04;29.23;;;18.90;;
3427;SDS011;1727;42.624;23.406;2023-02-25T01:33:32;37.57;;;19.13;;
3427;SDS011;1727;42.624;23.406;2023-02-25T01:36:02;31.60;;;18.20;;
3427;SDS011;1727;42.624;23.406;2023-02-25T01:38:30;31.53;;;20.00;;
3427;SDS011;1727;42.624;23.406;2023-02-25T01:40:57;31.10;;;17.30;;
3427;SDS011;1727;42.624;23.406;2023-02-25T01:43:25;39.37;;;23.37;;
3427;SDS011;1727;42.624;23.406;2023-02-25T01:45:53;44.40;;;21.27;;
3427;SDS011;1727;42.624;23.406;2023-02-25T01:48:21;34.70;;;19.47;;
3427;SDS011;1727;42.624;23.406;2023-02-25T01:50:50;52.73;;;25.10;;
3427;SDS011;1727;42.624;23.406;2023-02-25T01:53:22;32.47;;;16.77;;
3427;SDS011;1727;42.624;23.406;2023-02-25T01:55:52;26.23;;;14.50;;
3427;SDS011;1727;42.624;23.406;2023-02-25T01:58:21;50.97;;;26.40;;
3427;SDS011;1727;42.624;23.406;2023-02-25T02:00:49;44.43;;;24.27;;
3427;SDS011;1727;42.624;23.406;2023-02-25T02:03:22;27.60;;;18.93;;
3427;SDS011;1727;42.624;23.406;2023-02-25T02:05:56;32.13;;;17.20;;
3427;SDS011;1727;42.624;23.406;2023-02-25T02:08:28;26.97;;;19.80;;
3427;SDS011;1727;42.624;23.406;2023-02-25T02:10:56;38.70;;;19.00;;
3427;SDS011;1727;42.624;23.406;2023-02-25T02:13:23;31.43;;;19.10;;
3427;SDS011;1727;42.624;23.406;2023-02-25T02:15:54;32.53;;;19.47;;
3427;SDS011;1727;42.624;23.406;2023-02-25T02:18:31;33.03;;;18.60;;
3427;SDS011;1727;42.624;23.406;2023-02-25T02:21:03;25.10;;;17.00;;
3427;SDS011;1727;42.624;23.406;2023-02-25T02:23:52;47.50;;;32.67;;
3427;SDS011;1727;42.624;23.406;2023-02-25T02:26:43;42.00;;;27.20;;
3427;SDS011;1727;42.624;23.406;2023-02-25T02:32:29;44.73;;;19.90;;
3427;SDS011;1727;42.624;23.406;2023-02-25T02:35:03;46.13;;;27.43;;
3427;SDS011;1727;42.624;23.406;2023-02-25T02:37:39;39.10;;;21.30;;
3427;SDS011;1727;42.624;23.406;2023-02-25T02:40:20;42.97;;;24.43;;
3427;SDS011;1727;42.624;23.406;2023-02-25T02:43:04;47.83;;;31.60;;
3427;SDS011;1727;42.624;23.406;2023-02-25T02:45:37;36.87;;;18.03;;
3427;SDS011;1727;42.624;23.406;2023-02-25T02:48:12;26.40;;;16.97;;
3427;SDS011;1727;42.624;23.406;2023-02-25T02:50:44;38.60;;;17.97;;
3427;SDS011;1727;42.624;23.406;2023-02-25T02:53:15;33.03;;;17.53;;
3427;SDS011;1727;42.624;23.406;2023-02-25T02:55:46;23.97;;;16.27;;
3427;SDS011;1727;42.624;23.406;2023-02-25T02:58:15;27.70;;;16.37;;
3427;SDS011;1727;42.624;23.406;2023-02-25T03:00:48;30.50;;;17.33;;
3427;SDS011;1727;42.624;23.406;2023-02-25T03:03:23;29.47;;;17.87;;
3427;SDS011;1727;42.624;23.406;2023-02-25T03:06:00;30.60;;;18.30;;
3427;SDS011;1727;42.624;23.406;2023-02-25T03:08:28;32.77;;;16.30;;
3427;SDS011;1727;42.624;23.406;2023-02-25T03:10:57;29.47;;;16.80;;
3427;SDS011;1727;42.624;23.406;2023-02-25T03:13:24;29.40;;;17.40;;
3427;SDS011;1727;42.624;23.406;2023-02-25T03:15:51;29.23;;;16.07;;
3427;SDS011;1727;42.624;23.406;2023-02-25T03:18:22;34.90;;;18.40;;
3427;SDS011;1727;42.624;23.406;2023-02-25T03:20:54;41.40;;;18.50;;
3427;SDS011;1727;42.624;23.406;2023-02-25T03:23:24;29.53;;;16.60;;
3427;SDS011;1727;42.624;23.406;2023-02-25T03:25:57;37.90;;;17.60;;
3427;SDS011;1727;42.624;23.406;2023-02-25T03:28:34;29.73;;;18.27;;
3427;SDS011;1727;42.624;23.406;2023-02-25T03:31:02;24.93;;;15.73;;
3427;SDS011;1727;42.624;23.406;2023-02-25T03:33:36;34.00;;;18.20;;
3427;SDS011;1727;42.624;23.406;2023-02-25T03:36:12;31.47;;;18.40;;
3427;SDS011;1727;42.624;23.406;2023-02-25T03:38:42;28.70;;;17.53;;
3427;SDS011;1727;42.624;23.406;2023-02-25T03:41:12;30.33;;;18.93;;
3427;SDS011;1727;42.624;23.406;2023-02-25T03:43:42;32.77;;;17.77;;
3427;SDS011;1727;42.624;23.406;2023-02-25T03:46:12;32.13;;;17.00;;
3427;SDS011;1727;42.624;23.406;2023-02-25T03:48:41;31.37;;;17.90;;
3427;SDS011;1727;42.624;23.406;2023-02-25T03:51:09;29.50;;;14.97;;
3427;SDS011;1727;42.624;23.406;2023-02-25T03:53:38;36.00;;;16.93;;
3427;SDS011;1727;42.624;23.406;2023-02-25T03:56:06;34.83;;;17.83;;
3427;SDS011;1727;42.624;23.406;2023-02-25T03:58:35;27.37;;;16.50;;
3427;SDS011;1727;42.624;23.406;2023-02-25T04:01:06;34.13;;;18.50;;
3427;SDS011;1727;42.624;23.406;2023-02-25T04:03:37;27.50;;;19.70;;
3427;SDS011;1727;42.624;23.406;2023-02-25T04:06:05;25.37;;;16.50;;
3427;SDS011;1727;42.624;23.406;2023-02-25T04:08:32;29.13;;;18.40;;
3427;SDS011;1727;42.624;23.406;2023-02-25T04:10:59;27.13;;;17.80;;
3427;SDS011;1727;42.624;23.406;2023-02-25T04:13:25;34.23;;;19.23;;
3427;SDS011;1727;42.624;23.406;2023-02-25T04:15:52;32.37;;;18.97;;
3427;SDS011;1727;42.624;23.406;2023-02-25T04:18:19;25.87;;;16.03;;
3427;SDS011;1727;42.624;23.406;2023-02-25T04:20:45;35.13;;;18.77;;
3427;SDS011;1727;42.624;23.406;2023-02-25T04:23:14;26.07;;;16.40;;
3427;SDS011;1727;42.624;23.406;2023-02-25T04:25:41;31.70;;;18.43;;
3427;SDS011;1727;42.624;23.406;2023-02-25T04:28:08;40.63;;;20.80;;
3427;SDS011;1727;42.624;23.406;2023-02-25T04:30:35;30.73;;;18.43;;
3427;SDS011;1727;42.624;23.406;2023-02-25T04:33:02;30.20;;;17.97;;
3427;SDS011;1727;42.624;23.406;2023-02-25T04:35:29;34.50;;;18.00;;
3427;SDS011;1727;42.624;23.406;2023-02-25T04:37:56;32.60;;;17.63;;
3427;SDS011;1727;42.624;23.406;2023-02-25T04:40:25;31.63;;;15.80;;
3427;SDS011;1727;42.624;23.406;2023-02-25T04:42:53;32.40;;;16.50;;
3427;SDS011;1727;42.624;23.406;2023-02-25T04:45:19;31.50;;;17.73;;
3427;SDS011;1727;42.624;23.406;2023-02-25T04:47:49;32.53;;;16.97;;
3427;SDS011;1727;42.624;23.406;2023-02-25T04:50:17;31.33;;;16.73;;
3427;SDS011;1727;42.624;23.406;2023-02-25T04:52:44;32.30;;;18.90;;
3427;SDS011;1727;42.624;23.406;2023-02-25T04:55:12;29.53;;;17.80;;
3427;SDS011;1727;42.624;23.406;2023-02-25T04:57:40;39.07;;;17.47;;
3427;SDS011;1727;42.624;23.406;2023-02-25T05:00:08;34.23;;;16.63;;
3427;SDS011;1727;42.624;23.406;2023-02-25T05:02:43;36.27;;;17.97;;
3427;SDS011;1727;42.624;23.406;2023-02-25T05:05:11;33.63;;;19.90;;
3427;SDS011;1727;42.624;23.406;2023-02-25T05:07:38;38.27;;;21.03;;
3427;SDS011;1727;42.624;23.406;2023-02-25T05:10:05;29.97;;;18.37;;
3427;SDS011;1727;42.624;23.406;2023-02-25T05:12:32;38.17;;;21.97;;
3427;SDS011;1727;42.624;23.406;2023-02-25T05:15:01;42.70;;;19.20;;
3427;SDS011;1727;42.624;23.406;2023-02-25T05:17:29;41.30;;;20.77;;
3427;SDS011;1727;42.624;23.406;2023-02-25T05:19:56;30.40;;;17.83;;
3427;SDS011;1727;42.624;23.406;2023-02-25T05:22:23;41.23;;;17.80;;
3427;SDS011;1727;42.624;23.406;2023-02-25T05:24:51;30.07;;;16.80;;
3427;SDS011;1727;42.624;23.406;2023-02-25T05:27:17;31.77;;;17.20;;
3427;SDS011;1727;42.624;23.406;2023-02-25T05:29:44;38.73;;;23.53;;
3427;SDS011;1727;42.624;23.406;2023-02-25T05:32:12;37.70;;;20.47;;
3427;SDS011;1727;42.624;23.406;2023-02-25T05:34:39;33.63;;;19.30;;
3427;SDS011;1727;42.624;23.406;2023-02-25T05:37:06;30.27;;;14.40;;
3427;SDS011;1727;42.624;23.406;2023-02-25T05:39:33;36.10;;;17.13;;
3427;SDS011;1727;42.624;23.406;2023-02-25T05:42:00;33.60;;;16.90;;
3427;SDS011;1727;42.624;23.406;2023-02-25T05:44:27;39.73;;;19.37;;
3427;SDS011;1727;42.624;23.406;2023-02-25T05:46:53;28.77;;;18.70;;
3427;SDS011;1727;42.624;23.406;2023-02-25T05:49:22;29.47;;;16.07;;
3427;SDS011;1727;42.624;23.406;2023-02-25T05:51:49;41.27;;;21.20;;
3427;SDS011;1727;42.624;23.406;2023-02-25T05:54:16;38.93;;;20.17;;
3427;SDS011;1727;42.624;23.406;2023-02-25T05:56:42;54.30;;;28.37;;
3427;SDS011;1727;42.624;23.406;2023-02-25T05:59:09;43.13;;;22.60;;
3427;SDS011;1727;42.624;23.406;2023-02-25T06:01:37;40.83;;;14.87;;
3427;SDS011;1727;42.624;23.406;2023-02-25T06:04:04;32.77;;;18.47;;
3427;SDS011;1727;42.624;23.406;2023-02-25T06:06:32;27.13;;;16.47;;
3427;SDS011;1727;42.624;23.406;2023-02-25T06:08:59;30.13;;;17.97;;
3427;SDS011;1727;42.624;23.406;2023-02-25T06:11:27;31.73;;;17.10;;
3427;SDS011;1727;42.624;23.406;2023-02-25T06:13:55;30.47;;;17.37;;
3427;SDS011;1727;42.624;23.406;2023-02-25T06:16:23;38.50;;;19.50;;
3427;SDS011;1727;42.624;23.406;2023-02-25T06:18:54;38.83;;;19.03;;
3427;SDS011;1727;42.624;23.406;2023-02-25T06:21:21;30.93;;;20.93;;
3427;SDS011;1727;42.624;23.406;2023-02-25T06:23:50;26.30;;;16.63;;
3427;SDS011;1727;42.624;23.406;2023-02-25T06:26:17;31.30;;;17.33;;
3427;SDS011;1727;42.624;23.406;2023-02-25T06:28:44;30.90;;;17.63;;
3427;SDS011;1727;42.624;23.406;2023-02-25T06:31:12;30.93;;;19.27;;
3427;SDS011;1727;42.624;23.406;2023-02-25T06:33:40;35.73;;;18.97;;
3427;SDS011;1727;42.624;23.406;2023-02-25T06:36:07;36.80;;;18.83;;
3427;SDS011;1727;42.624;23.406;2023-02-25T06:38:34;39.83;;;24.30;;
3427;SDS011;1727;42.624;23.406;2023-02-25T06:41:05;42.63;;;22.70;;
3427;SDS011;1727;42.624;23.406;2023-02-25T06:43:32;32.93;;;19.63;;
3427;SDS011;1727;42.624;23.406;2023-02-25T06:46:02;30.37;;;20.20;;
3427;SDS011;1727;42.624;23.406;2023-02-25T06:48:30;31.83;;;19.00;;
3427;SDS011;1727;42.624;23.406;2023-02-25T06:50:57;46.23;;;20.77;;
3427;SDS011;1727;42.624;23.406;2023-02-25T06:53:24;30.50;;;18.10;;
3427;SDS011;1727;42.624;23.406;2023-02-25T06:55:51;31.33;;;17.27;;
3427;SDS011;1727;42.624;23.406;2023-02-25T06:58:19;38.40;;;20.00;;
3427;SDS011;1727;42.624;23.406;2023-02-25T07:00:46;34.13;;;19.80;;
3427;SDS011;1727;42.624;23.406;2023-02-25T07:03:13;35.13;;;16.03;;
3427;SDS011;1727;42.624;23.406;2023-02-25T07:05:41;28.13;;;17.37;;
3427;SDS011;1727;42.624;23.406;2023-02-25T07:08:08;37.53;;;21.73;;
3427;SDS011;1727;42.624;23.406;2023-02-25T07:10:35;34.13;;;17.63;;
3427;SDS011;1727;42.624;23.406;2023-02-25T07:13:04;39.63;;;18.77;;
3427;SDS011;1727;42.624;23.406;2023-02-25T07:15:33;27.83;;;18.40;;
3427;SDS011;1727;42.624;23.406;2023-02-25T07:18:00;27.87;;;18.40;;
3427;SDS011;1727;42.624;23.406;2023-02-25T07:20:27;40.17;;;21.17;;
3427;SDS011;1727;42.624;23.406;2023-02-25T07:22:55;35.93;;;17.63;;
3427;SDS011;1727;42.624;23.406;2023-02-25T07:25:21;33.40;;;17.53;;
3427;SDS011;1727;42.624;23.406;2023-02-25T07:27:48;37.93;;;20.03;;
3427;SDS011;1727;42.624;23.406;2023-02-25T07:30:15;26.47;;;16.80;;
3427;SDS011;1727;42.624;23.406;2023-02-25T07:32:43;34.17;;;19.57;;
3427;SDS011;1727;42.624;23.406;2023-02-25T07:35:10;29.77;;;16.27;;
3427;SDS011;1727;42.624;23.406;2023-02-25T07:37:37;28.47;;;16.43;;
3427;SDS011;1727;42.624;23.406;2023-02-25T07:40:04;27.43;;;15.20;;
3427;SDS011;1727;42.624;23.406;2023-02-25T07:42:37;37.07;;;17.00;;
3427;SDS011;1727;42.624;23.406;2023-02-25T07:45:05;26.80;;;15.70;;
3427;SDS011;1727;42.624;23.406;2023-02-25T07:47:34;32.53;;;16.50;;
3427;SDS011;1727;42.624;23.406;2023-02-25T07:50:02;33.33;;;18.00;;
3427;SDS011;1727;42.624;23.406;2023-02-25T07:52:29;34.00;;;18.50;;
3427;SDS011;1727;42.624;23.406;2023-02-25T07:54:56;37.73;;;21.07;;
3427;SDS011;1727;42.624;23.406;2023-02-25T07:57:22;31.50;;;16.77;;
3427;SDS011;1727;42.624;23.406;2023-02-25T07:59:49;33.47;;;16.33;;
3427;SDS011;1727;42.624;23.406;2023-02-25T08:02:16;31.97;;;16.60;;
3427;SDS011;1727;42.624;23.406;2023-02-25T08:04:43;30.73;;;15.40;;
3427;SDS011;1727;42.624;23.406;2023-02-25T08:07:11;28.90;;;17.80;;
3427;SDS011;1727;42.624;23.406;2023-02-25T08:09:38;33.77;;;15.63;;
3427;SDS011;1727;42.624;23.406;2023-02-25T08:12:06;29.90;;;16.43;;
3427;SDS011;1727;42.624;23.406;2023-02-25T08:14:33;32.80;;;15.83;;
3427;SDS011;1727;42.624;23.406;2023-02-25T08:17:00;35.40;;;18.03;;
3427;SDS011;1727;42.624;23.406;2023-02-25T08:19:27;32.07;;;16.13;;
3427;SDS011;1727;42.624;23.406;2023-02-25T08:21:54;27.57;;;14.37;;
3427;SDS011;1727;42.624;23.406;2023-02-25T08:24:22;35.13;;;19.27;;
3427;SDS011;1727;42.624;23.406;2023-02-25T08:26:49;34.27;;;15.77;;
3427;SDS011;1727;42.624;23.406;2023-02-25T08:29:16;48.47;;;18.23;;
3427;SDS011;1727;42.624;23.406;2023-02-25T08:31:43;24.57;;;15.07;;
3427;SDS011;1727;42.624;23.406;2023-02-25T08:34:10;32.73;;;17.57;;
3427;SDS011;1727;42.624;23.406;2023-02-25T08:36:38;29.83;;;16.20;;
3427;SDS011;1727;42.624;23.406;2023-02-25T08:39:05;23.40;;;15.47;;
3427;SDS011;1727;42.624;23.406;2023-02-25T08:41:35;40.13;;;16.13;;
3427;SDS011;1727;42.624;23.406;2023-02-25T08:44:03;24.83;;;12.80;;
3427;SDS011;1727;42.624;23.406;2023-02-25T08:46:30;29.07;;;17.50;;
3427;SDS011;1727;42.624;23.406;2023-02-25T08:48:57;37.37;;;17.13;;
3427;SDS011;1727;42.624;23.406;2023-02-25T08:51:25;38.60;;;17.93;;
3427;SDS011;1727;42.624;23.406;2023-02-25T08:53:58;33.67;;;17.80;;
3427;SDS011;1727;42.624;23.406;2023-02-25T08:56:26;37.13;;;16.30;;
3427;SDS011;1727;42.624;23.406;2023-02-25T08:58:54;32.73;;;16.17;;
3427;SDS011;1727;42.624;23.406;2023-02-25T09:01:23;37.33;;;15.77;;
3427;SDS011;1727;42.624;23.406;2023-02-25T09:04:03;36.23;;;19.37;;
3427;SDS011;1727;42.624;23.406;2023-02-25T09:06:31;42.10;;;16.87;;
3427;SDS011;1727;42.624;23.406;2023-02-25T09:08:59;30.10;;;15.03;;
3427;SDS011;1727;42.624;23.406;2023-02-25T09:11:25;31.87;;;17.97;;
3427;SDS011;1727;42.624;23.406;2023-02-25T09:13:52;46.70;;;15.00;;
3427;SDS011;1727;42.624;23.406;2023-02-25T09:16:20;29.43;;;15.47;;
3427;SDS011;1727;42.624;23.406;2023-02-25T09:18:47;29.00;;;14.77;;
3427;SDS011;1727;42.624;23.406;2023-02-25T09:21:15;30.50;;;16.30;;
3427;SDS011;1727;42.624;23.406;2023-02-25T09:23:42;24.50;;;15.20;;
3427;SDS011;1727;42.624;23.406;2023-02-25T09:26:10;48.10;;;17.93;;
3427;SDS011;1727;42.624;23.406;2023-02-25T09:28:38;37.03;;;18.50;;
3427;SDS011;1727;42.624;23.406;2023-02-25T09:31:05;39.47;;;17.60;;
3427;SDS011;1727;42.624;23.406;2023-02-25T09:33:33;31.57;;;17.37;;
3427;SDS011;1727;42.624;23.406;2023-02-25T09:36:04;46.13;;;17.10;;
3427;SDS011;1727;42.624;23.406;2023-02-25T09:38:32;47.43;;;17.83;;
3427;SDS011;1727;42.624;23.406;2023-02-25T09:40:59;39.73;;;18.23;;
3427;SDS011;1727;42.624;23.406;2023-02-25T09:43:26;45.73;;;19.53;;
3427;SDS011;1727;42.624;23.406;2023-02-25T09:45:58;37.70;;;19.80;;
3427;SDS011;1727;42.624;23.406;2023-02-25T09:48:33;29.33;;;21.47;;
3427;SDS011;1727;42.624;23.406;2023-02-25T09:51:06;42.40;;;18.97;;
3427;SDS011;1727;42.624;23.406;2023-02-25T09:53:44;38.17;;;22.40;;
3427;SDS011;1727;42.624;23.406;2023-02-25T09:56:21;37.00;;;18.33;;
3427;SDS011;1727;42.624;23.406;2023-02-25T09:58:52;35.80;;;23.30;;
3427;SDS011;1727;42.624;23.406;2023-02-25T10:01:23;42.70;;;20.03;;
3427;SDS011;1727;42.624;23.406;2023-02-25T10:04:00;47.73;;;22.97;;
3427;SDS011;1727;42.624;23.406;2023-02-25T10:06:33;56.70;;;19.93;;
3427;SDS011;1727;42.624;23.406;2023-02-25T10:09:05;36.87;;;18.40;;
3427;SDS011;1727;42.624;23.406;2023-02-25T10:11:42;46.80;;;20.40;;
3427;SDS011;1727;42.624;23.406;2023-02-25T10:14:28;48.43;;;21.50;;
3427;SDS011;1727;42.624;23.406;2023-02-25T10:17:08;46.97;;;22.43;;
3427;SDS011;1727;42.624;23.406;2023-02-25T10:19:46;32.87;;;18.50;;
3427;SDS011;1727;42.624;23.406;2023-02-25T10:22:30;68.70;;;22.93;;
3427;SDS011;1727;42.624;23.406;2023-02-25T10:25:09;52.07;;;20.80;;
3427;SDS011;1727;42.624;23.406;2023-02-25T10:27:40;42.83;;;19.80;;
3427;SDS011;1727;42.624;23.406;2023-02-25T10:30:14;28.93;;;13.80;;
3427;SDS011;1727;42.624;23.406;2023-02-25T10:32:45;35.70;;;16.93;;
3427;SDS011;1727;42.624;23.406;2023-02-25T10:35:16;42.43;;;18.33;;
3427;SDS011;1727;42.624;23.406;2023-02-25T10:37:47;35.03;;;16.83;;
3427;SDS011;1727;42.624;23.406;2023-02-25T10:40:14;37.67;;;15.50;;
3427;SDS011;1727;42.624;23.406;2023-02-25T10:42:44;57.13;;;25.07;;
3427;SDS011;1727;42.624;23.406;2023-02-25T10:45:16;50.67;;;20.30;;
3427;SDS011;1727;42.624;23.406;2023-02-25T10:47:47;35.43;;;14.93;;
3427;SDS011;1727;42.624;23.406;2023-02-25T10:50:22;30.73;;;11.73;;
3427;SDS011;1727;42.624;23.406;2023-02-25T10:52:51;28.10;;;13.63;;
3427;SDS011;1727;42.624;23.406;2023-02-25T10:55:35;47.17;;;21.10;;
3427;SDS011;1727;42.624;23.406;2023-02-25T10:58:30;40.43;;;22.70;;
3427;SDS011;1727;42.624;23.406;2023-02-25T11:01:03;34.87;;;11.60;;
3427;SDS011;1727;42.624;23.406;2023-02-25T11:03:33;35.30;;;15.43;;
3427;SDS011;1727;42.624;23.406;2023-02-25T11:06:16;51.97;;;15.77;;
3427;SDS011;1727;42.624;23.406;2023-02-25T11:08:47;41.73;;;16.50;;
3427;SDS011;1727;42.624;23.406;2023-02-25T11:11:15;30.73;;;18.27;;
3427;SDS011;1727;42.624;23.406;2023-02-25T11:13:52;32.67;;;15.47;;
3427;SDS011;1727;42.624;23.406;2023-02-25T11:16:21;29.70;;;14.43;;
3427;SDS011;1727;42.624;23.406;2023-02-25T11:18:50;36.37;;;17.10;;
3427;SDS011;1727;42.624;23.406;2023-02-25T11:21:27;57.10;;;18.83;;
3427;SDS011;1727;42.624;23.406;2023-02-25T11:23:58;52.80;;;18.97;;
3427;SDS011;1727;42.624;23.406;2023-02-25T11:26:28;38.50;;;14.20;;
3427;SDS011;1727;42.624;23.406;2023-02-25T11:28:58;66.97;;;26.87;;
3427;SDS011;1727;42.624;23.406;2023-02-25T11:31:28;43.37;;;18.27;;
3427;SDS011;1727;42.624;23.406;2023-02-25T11:33:58;52.20;;;16.60;;
3427;SDS011;1727;42.624;23.406;2023-02-25T11:36:30;29.13;;;13.93;;
3427;SDS011;1727;42.624;23.406;2023-02-25T11:39:05;57.50;;;23.17;;
3427;SDS011;1727;42.624;23.406;2023-02-25T11:41:41;37.80;;;21.40;;
3427;SDS011;1727;42.624;23.406;2023-02-25T11:44:19;48.77;;;17.50;;
3427;SDS011;1727;42.624;23.406;2023-02-25T11:47:03;33.90;;;16.70;;
3427;SDS011;1727;42.624;23.406;2023-02-25T11:49:51;24.47;;;10.30;;
3427;SDS011;1727;42.624;23.406;2023-02-25T11:52:34;26.17;;;8.60;;
3427;SDS011;1727;42.624;23.406;2023-02-25T11:55:09;41.80;;;11.20;;
3427;SDS011;1727;42.624;23.406;2023-02-25T11:57:47;37.37;;;9.50;;
3427;SDS011;1727;42.624;23.406;2023-02-25T12:00:25;41.80;;;13.60;;
3427;SDS011;1727;42.624;23.406;2023-02-25T12:05:58;32.00;;;17.43;;
3427;SDS011;1727;42.624;23.406;2023-02-25T12:11:55;34.63;;;11.63;;
3427;SDS011;1727;42.624;23.406;2023-02-25T12:17:48;41.73;;;15.97;;
3427;SDS011;1727;42.624;23.406;2023-02-25T12:26:40;29.10;;;10.97;;
3427;SDS011;1727;42.624;23.406;2023-02-25T12:29:27;19.20;;;7.67;;
3427;SDS011;1727;42.624;23.406;2023-02-25T12:32:12;36.73;;;14.13;;
3427;SDS011;1727;42.624;23.406;2023-02-25T12:38:20;29.87;;;11.63;;
3427;SDS011;1727;42.624;23.406;2023-02-25T12:41:20;26.23;;;9.93;;
3427;SDS011;1727;42.624;23.406;2023-02-25T12:44:14;26.33;;;9.67;;
3427;SDS011;1727;42.624;23.406;2023-02-25T12:47:05;31.70;;;10.03;;
3427;SDS011;1727;42.624;23.406;2023-02-25T12:49:55;31.23;;;9.03;;
3427;SDS011;1727;42.624;23.406;2023-02-25T12:52:36;15.30;;;7.10;;
3427;SDS011;1727;42.624;23.406;2023-02-25T12:58:22;17.03;;;7.27;;
3427;SDS011;1727;42.624;23.406;2023-02-25T13:01:07;20.83;;;7.43;;
3427;SDS011;1727;42.624;23.406;2023-02-25T13:03:55;19.73;;;6.50;;
3427;SDS011;1727;42.624;23.406;2023-02-25T13:06:59;15.77;;;6.47;;
3427;SDS011;1727;42.624;23.406;2023-02-25T13:09:50;23.57;;;6.73;;
3427;SDS011;1727;42.624;23.406;2023-02-25T13:12:28;22.87;;;6.90;;
3427;SDS011;1727;42.624;23.406;2023-02-25T13:15:11;31.27;;;7.50;;
3427;SDS011;1727;42.624;23.406;2023-02-25T13:17:50;20.53;;;7.03;;
3427;SDS011;1727;42.624;23.406;2023-02-25T13:20:35;18.30;;;7.00;;
3427;SDS011;1727;42.624;23.406;2023-02-25T13:29:18;17.50;;;7.40;;
3427;SDS011;1727;42.624;23.406;2023-02-25T13:32:07;25.67;;;7.27;;
3427;SDS011;1727;42.624;23.406;2023-02-25T13:34:45;24.80;;;9.68;;
3427;SDS011;1727;42.624;23.406;2023-02-25T13:37:29;15.43;;;7.53;;
3427;SDS011;1727;42.624;23.406;2023-02-25T13:43:05;23.77;;;9.60;;
3427;SDS011;1727;42.624;23.406;2023-02-25T13:45:46;30.97;;;12.70;;
3427;SDS011;1727;42.624;23.406;2023-02-25T13:48:22;22.13;;;9.67;;
3427;SDS011;1727;42.624;23.406;2023-02-25T13:51:05;17.80;;;7.37;;
3427;SDS011;1727;42.624;23.406;2023-02-25T14:02:34;41.33;;;10.63;;
3427;SDS011;1727;42.624;23.406;2023-02-25T14:08:25;21.33;;;11.37;;
3427;SDS011;1727;42.624;23.406;2023-02-25T14:11:25;19.80;;;9.80;;
3427;SDS011;1727;42.624;23.406;2023-02-25T14:14:05;20.13;;;9.80;;
3427;SDS011;1727;42.624;23.406;2023-02-25T14:20:12;16.73;;;6.60;;
3427;SDS011;1727;42.624;23.406;2023-02-25T14:22:47;29.20;;;5.93;;
3427;SDS011;1727;42.624;23.406;2023-02-25T14:25:21;13.30;;;7.10;;
3427;SDS011;1727;42.624;23.406;2023-02-25T14:28:04;25.27;;;6.67;;
3427;SDS011;1727;42.624;23.406;2023-02-25T14:30:42;22.87;;;6.57;;
3427;SDS011;1727;42.624;23.406;2023-02-25T14:33:25;21.17;;;7.57;;
3427;SDS011;1727;42.624;23.406;2023-02-25T14:36:18;30.03;;;9.13;;
3427;SDS011;1727;42.624;23.406;2023-02-25T14:39:11;17.57;;;7.80;;
3427;SDS011;1727;42.624;23.406;2023-02-25T14:41:52;17.53;;;6.97;;
3427;SDS011;1727;42.624;23.406;2023-02-25T14:44:32;16.73;;;6.67;;
3427;SDS011;1727;42.624;23.406;2023-02-25T14:47:04;16.40;;;6.33;;
3427;SDS011;1727;42.624;23.406;2023-02-25T14:49:37;15.50;;;6.13;;
3427;SDS011;1727;42.624;23.406;2023-02-25T14:55:15;17.90;;;6.10;;
3427;SDS011;1727;42.624;23.406;2023-02-25T14:58:12;15.47;;;7.07;;
3427;SDS011;1727;42.624;23.406;2023-02-25T15:01:06;17.00;;;7.57;;
3427;SDS011;1727;42.624;23.406;2023-02-25T15:03:43;12.77;;;5.75;;
3427;SDS011;1727;42.624;23.406;2023-02-25T15:06:34;17.97;;;6.97;;
3427;SDS011;1727;42.624;23.406;2023-02-25T15:09:22;19.07;;;7.10;;
3427;SDS011;1727;42.624;23.406;2023-02-25T15:12:11;14.00;;;5.17;;
3427;SDS011;1727;42.624;23.406;2023-02-25T15:14:51;19.27;;;6.67;;
3427;SDS011;1727;42.624;23.406;2023-02-25T15:17:54;25.30;;;6.93;;
3427;SDS011;1727;42.624;23.406;2023-02-25T15:20:42;21.83;;;7.80;;
3427;SDS011;1727;42.624;23.406;2023-02-25T15:23:10;21.03;;;7.30;;
3427;SDS011;1727;42.624;23.406;2023-02-25T15:25:41;31.03;;;8.37;;
3427;SDS011;1727;42.624;23.406;2023-02-25T15:31:07;24.37;;;7.57;;
3427;SDS011;1727;42.624;23.406;2023-02-25T15:33:36;12.53;;;7.40;;
3427;SDS011;1727;42.624;23.406;2023-02-25T15:39:04;25.70;;;7.80;;
3427;SDS011;1727;42.624;23.406;2023-02-25T15:41:36;25.80;;;7.90;;
3427;SDS011;1727;42.624;23.406;2023-02-25T15:47:16;21.57;;;7.53;;
3427;SDS011;1727;42.624;23.406;2023-02-25T15:49:48;15.27;;;8.43;;
3427;SDS011;1727;42.624;23.406;2023-02-25T15:55:33;17.97;;;6.30;;
3427;SDS011;1727;42.624;23.406;2023-02-25T16:01:07;17.07;;;6.70;;
3427;SDS011;1727;42.624;23.406;2023-02-25T16:03:50;18.10;;;8.70;;
3427;SDS011;1727;42.624;23.406;2023-02-25T16:06:17;14.33;;;6.40;;
3427;SDS011;1727;42.624;23.406;2023-02-25T16:08:49;27.67;;;8.80;;
3427;SDS011;1727;42.624;23.406;2023-02-25T16:11:23;11.87;;;6.63;;
3427;SDS011;1727;42.624;23.406;2023-02-25T16:13:55;45.53;;;23.93;;